createdAt,value
2023-04-29T00:00:15.863Z,12.15
2023-04-29T00:02:44.292Z,12.20
2023-04-29T00:05:13.652Z,12.17
2023-04-29T00:07:43.287Z,12.05
2023-04-29T00:10:14.938Z,12.03
2023-04-29T00:12:43.199Z,12.06
2023-04-29T00:15:12.451Z,12.10
2023-04-29T00:17:40.961Z,12.04
2023-04-29T00:20:10.599Z,12.09
2023-04-29T00:22:38.826Z,12.00
2023-04-29T00:25:08.373Z,12.30
2023-04-29T00:27:39.468Z,12.25
2023-04-29T00:30:11.093Z,12.11
2023-04-29T00:32:39.296Z,12.18
2023-04-29T00:35:08.366Z,12.14
2023-04-29T00:37:38.159Z,12.20
2023-04-29T00:40:07.485Z,11.90
2023-04-29T00:42:37.477Z,12.12
2023-04-29T00:45:08.182Z,12.06
2023-04-29T00:47:36.649Z,12.07
2023-04-29T00:50:05.636Z,12.15
2023-04-29T00:52:34.412Z,12.13
2023-04-29T00:55:04.260Z,12.02
2023-04-29T00:57:32.438Z,12.04
2023-04-29T01:00:03.001Z,12.02
2023-04-29T01:02:31.390Z,12.03
2023-04-29T01:04:59.648Z,11.98
2023-04-29T01:07:36.381Z,12.12
2023-04-29T01:10:07.549Z,12.14
2023-04-29T01:12:44.993Z,12.07
2023-04-29T01:15:25.761Z,12.16
2023-04-29T01:18:00.527Z,12.29
2023-04-29T01:20:29.604Z,12.27
2023-04-29T01:22:58.647Z,12.36
2023-04-29T01:25:29.084Z,12.23
2023-04-29T01:28:08.922Z,12.18
2023-04-29T01:30:48.806Z,12.06
2023-04-29T01:33:23.459Z,11.77
2023-04-29T01:36:07.693Z,11.98
2023-04-29T01:38:42.204Z,11.89
2023-04-29T01:41:18.481Z,11.98
2023-04-29T01:43:53.888Z,12.00
2023-04-29T01:46:22.221Z,11.95
2023-04-29T01:48:50.423Z,11.92
2023-04-29T01:51:18.906Z,11.90
2023-04-29T01:53:47.666Z,11.85
2023-04-29T01:56:17.566Z,11.76
2023-04-29T01:58:46.041Z,11.73
2023-04-29T02:01:14.393Z,11.69
2023-04-29T02:03:43.022Z,11.69
2023-04-29T02:06:11.451Z,11.62
2023-04-29T02:08:39.986Z,11.57
2023-04-29T02:11:08.175Z,11.53
2023-04-29T02:13:38.050Z,11.62
2023-04-29T02:16:10.337Z,11.56
2023-04-29T02:18:39.308Z,11.56
2023-04-29T02:21:07.742Z,11.57
2023-04-29T02:23:36.344Z,11.53
2023-04-29T02:26:06.363Z,11.54
2023-04-29T02:28:34.951Z,11.46
2023-04-29T02:31:04.977Z,11.45
2023-04-29T02:33:33.403Z,11.40
2023-04-29T02:36:01.792Z,11.39
2023-04-29T02:38:30.570Z,11.41
2023-04-29T02:40:58.816Z,11.43
2023-04-29T02:43:27.077Z,11.33
2023-04-29T02:45:55.588Z,11.32
2023-04-29T02:48:25.573Z,11.31
2023-04-29T02:50:54.074Z,11.34
2023-04-29T02:53:22.502Z,11.27
2023-04-29T02:55:50.570Z,11.23
2023-04-29T02:58:18.821Z,11.26
2023-04-29T03:00:47.206Z,11.26
2023-04-29T03:03:15.866Z,11.16
2023-04-29T03:05:45.722Z,11.36
2023-04-29T03:08:14.665Z,11.26
2023-04-29T03:10:43.385Z,11.34
2023-04-29T03:13:11.628Z,11.30
2023-04-29T03:15:40.335Z,11.35
2023-04-29T03:18:09.838Z,11.37
2023-04-29T03:20:38.118Z,11.30
2023-04-29T03:23:08.179Z,11.29
2023-04-29T03:25:37.048Z,11.26
2023-04-29T03:28:05.637Z,11.29
2023-04-29T03:30:34.234Z,11.33
2023-04-29T03:33:02.615Z,11.38
2023-04-29T03:35:30.920Z,11.50
2023-04-29T03:37:59.239Z,11.49
2023-04-29T03:40:28.755Z,11.42
2023-04-29T03:42:57.308Z,11.35
2023-04-29T03:45:25.924Z,11.35
2023-04-29T03:47:55.011Z,11.46
2023-04-29T03:50:24.687Z,11.52
2023-04-29T03:52:53.367Z,11.48
2023-04-29T03:55:21.803Z,11.34
2023-04-29T03:57:51.307Z,11.43
2023-04-29T04:00:19.895Z,11.46
2023-04-29T04:02:48.798Z,11.44
2023-04-29T04:05:19.546Z,11.52
2023-04-29T04:07:48.491Z,11.52
2023-04-29T04:10:17.228Z,11.50
2023-04-29T04:12:46.131Z,11.58
2023-04-29T04:15:17.470Z,11.39
2023-04-29T04:17:45.811Z,11.53
2023-04-29T04:20:14.435Z,11.60
2023-04-29T04:22:42.934Z,11.68
2023-04-29T04:25:12.113Z,11.63
2023-04-29T04:27:40.208Z,11.63
2023-04-29T04:30:09.884Z,11.61
2023-04-29T04:32:42.521Z,11.78
2023-04-29T04:35:11.172Z,11.76
2023-04-29T04:37:39.581Z,11.68
2023-04-29T04:40:09.365Z,11.75
2023-04-29T04:42:37.870Z,11.89
2023-04-29T04:45:06.807Z,11.81
2023-04-29T04:47:36.574Z,11.94
2023-04-29T04:50:07.727Z,11.97
2023-04-29T04:52:36.027Z,12.02
2023-04-29T04:55:04.402Z,12.06
2023-04-29T04:57:32.835Z,12.09
2023-04-29T05:00:01.761Z,12.23
2023-04-29T05:02:30.350Z,12.24
2023-04-29T05:04:58.779Z,12.33
2023-04-29T05:07:28.361Z,12.29
2023-04-29T05:09:56.912Z,12.42
2023-04-29T05:12:31.039Z,12.48
2023-04-29T05:14:59.376Z,12.42
2023-04-29T05:17:28.176Z,12.58
2023-04-29T05:19:56.715Z,12.59
2023-04-29T05:22:25.357Z,12.53
2023-04-29T05:25:00.539Z,12.83
2023-04-29T05:27:28.823Z,12.80
2023-04-29T05:29:57.426Z,12.79
2023-04-29T05:32:25.709Z,12.78
2023-04-29T05:34:53.971Z,12.56
2023-04-29T05:37:22.450Z,12.86
2023-04-29T05:39:51.046Z,12.92
2023-04-29T05:42:20.790Z,12.96
2023-04-29T05:44:49.041Z,13.09
2023-04-29T05:47:17.373Z,13.07
2023-04-29T05:49:45.532Z,13.02
2023-04-29T05:52:13.740Z,13.13
2023-04-29T05:54:42.216Z,13.13
2023-04-29T05:57:10.475Z,13.15
2023-04-29T05:59:40.171Z,13.41
2023-04-29T06:02:08.416Z,13.40
2023-04-29T06:04:36.959Z,13.48
2023-04-29T06:07:09.428Z,13.34
2023-04-29T06:09:37.750Z,13.40
2023-04-29T06:12:06.756Z,13.31
2023-04-29T06:14:35.190Z,13.47
2023-04-29T06:17:05.027Z,13.44
2023-04-29T06:19:34.139Z,13.51
2023-04-29T06:22:02.978Z,13.55
2023-04-29T06:24:31.034Z,13.54
2023-04-29T06:26:59.081Z,13.75
2023-04-29T06:29:27.243Z,13.79
2023-04-29T06:31:56.653Z,13.89
2023-04-29T06:34:26.622Z,13.75
2023-04-29T06:36:55.390Z,13.75
2023-04-29T06:39:23.726Z,13.70
2023-04-29T06:41:52.308Z,13.81
2023-04-29T06:44:20.743Z,13.89
2023-04-29T06:46:49.759Z,13.73
2023-04-29T06:49:20.971Z,13.93
2023-04-29T06:51:50.904Z,13.75
2023-04-29T06:54:19.305Z,13.77
2023-04-29T06:56:51.642Z,13.76
2023-04-29T06:59:19.916Z,13.77
2023-04-29T07:01:49.926Z,13.73
2023-04-29T07:04:18.566Z,13.82
2023-04-29T07:06:47.625Z,13.87
2023-04-29T07:09:20.454Z,13.75
2023-04-29T07:11:49.361Z,13.78
2023-04-29T07:14:17.894Z,13.83
2023-04-29T07:16:46.081Z,13.91
2023-04-29T07:19:14.321Z,14.11
2023-04-29T07:21:42.780Z,14.27
2023-04-29T07:24:12.703Z,14.24
2023-04-29T07:26:44.185Z,14.21
2023-04-29T07:29:12.551Z,14.11
2023-04-29T07:31:40.903Z,13.96
2023-04-29T07:34:09.474Z,13.87
2023-04-29T07:36:38.239Z,13.67
2023-04-29T07:39:06.448Z,13.72
2023-04-29T07:41:34.657Z,13.75
2023-04-29T07:44:04.287Z,13.68
2023-04-29T07:46:32.443Z,13.71
2023-04-29T07:49:00.691Z,13.71
2023-04-29T07:51:30.311Z,13.70
2023-04-29T07:53:58.485Z,13.55
2023-04-29T07:56:26.919Z,13.41
2023-04-29T07:58:55.486Z,13.71
2023-04-29T08:01:25.776Z,13.70
2023-04-29T08:03:54.155Z,13.54
2023-04-29T08:06:22.977Z,13.34
2023-04-29T08:08:51.589Z,13.04
2023-04-29T08:11:20.694Z,13.18
2023-04-29T08:13:49.465Z,12.75
2023-04-29T08:16:18.029Z,12.49
2023-04-29T08:18:47.723Z,12.52
2023-04-29T08:21:16.017Z,12.56
2023-04-29T08:23:44.469Z,12.55
2023-04-29T08:26:13.778Z,13.02
2023-04-29T08:28:42.954Z,12.86
2023-04-29T08:31:18.813Z,13.17
2023-04-29T08:33:49.461Z,13.06
2023-04-29T08:36:17.638Z,13.07
2023-04-29T08:38:46.599Z,12.91
2023-04-29T08:41:17.698Z,12.81
2023-04-29T08:43:46.276Z,13.18
2023-04-29T08:46:22.468Z,12.64
2023-04-29T08:48:54.833Z,12.79
2023-04-29T08:51:23.187Z,12.53
2023-04-29T08:53:51.548Z,12.62
2023-04-29T08:56:20.732Z,12.63
2023-04-29T08:58:54.822Z,12.88
2023-04-29T09:01:24.485Z,13.04
2023-04-29T09:04:02.213Z,13.08
2023-04-29T09:06:32.489Z,13.19
2023-04-29T09:09:01.430Z,13.08
2023-04-29T09:11:30.124Z,12.80
2023-04-29T09:14:01.977Z,13.07
2023-04-29T09:16:30.213Z,12.80
2023-04-29T09:19:00.680Z,12.59
2023-04-29T09:21:31.743Z,12.83
2023-04-29T09:24:02.579Z,13.10
2023-04-29T09:26:44.306Z,12.73
2023-04-29T09:29:17.053Z,12.95
2023-04-29T09:31:45.634Z,12.99
2023-04-29T09:34:16.560Z,12.86
2023-04-29T09:36:47.069Z,12.69
2023-04-29T09:39:17.921Z,12.77
2023-04-29T09:42:02.999Z,12.71
2023-04-29T09:44:34.486Z,12.93
2023-04-29T09:47:04.684Z,13.03
2023-04-29T09:49:37.593Z,13.51
2023-04-29T09:52:08.223Z,13.38
2023-04-29T09:54:38.645Z,13.15
2023-04-29T09:57:08.053Z,12.93
2023-04-29T09:59:38.644Z,13.35
2023-04-29T10:02:11.766Z,13.17
2023-04-29T10:04:43.901Z,13.29
2023-04-29T10:07:15.852Z,13.47
2023-04-29T10:09:46.048Z,13.73
2023-04-29T10:12:17.778Z,13.90
2023-04-29T10:14:51.427Z,13.15
2023-04-29T10:17:25.636Z,12.99
2023-04-29T10:20:05.957Z,12.94
2023-04-29T10:22:44.086Z,13.16
2023-04-29T10:25:14.773Z,13.74
2023-04-29T10:27:44.479Z,13.64
2023-04-29T10:30:14.697Z,13.20
2023-04-29T10:32:51.013Z,13.15
2023-04-29T10:35:23.966Z,12.94
2023-04-29T10:37:53.170Z,13.31
2023-04-29T10:40:29.334Z,13.44
2023-04-29T10:42:58.406Z,13.19
2023-04-29T10:45:28.796Z,13.19
2023-04-29T10:48:16.804Z,13.58
2023-04-29T10:51:05.657Z,13.98
2023-04-29T10:53:33.921Z,14.15
2023-04-29T10:56:08.992Z,14.21
2023-04-29T10:58:39.364Z,13.76
2023-04-29T11:01:10.663Z,13.66
2023-04-29T11:04:02.094Z,13.88
2023-04-29T11:06:48.652Z,13.76
2023-04-29T11:09:21.262Z,13.96
2023-04-29T11:12:03.453Z,13.88
2023-04-29T11:14:36.775Z,13.82
2023-04-29T11:17:09.352Z,13.84
2023-04-29T11:19:38.717Z,13.86
2023-04-29T11:22:13.605Z,13.83
2023-04-29T11:24:52.462Z,13.91
2023-04-29T11:27:25.518Z,14.22
2023-04-29T11:29:59.018Z,14.08
2023-04-29T11:32:28.398Z,14.25
2023-04-29T11:34:57.010Z,14.17
2023-04-29T11:37:28.481Z,14.51
2023-04-29T11:40:02.371Z,14.28
2023-04-29T11:42:30.694Z,14.34
2023-04-29T11:45:00.533Z,14.55
2023-04-29T11:47:30.798Z,13.96
2023-04-29T11:50:07.975Z,14.27
2023-04-29T11:52:41.715Z,14.22
2023-04-29T11:55:11.893Z,14.60
2023-04-29T11:57:40.610Z,14.65
2023-04-29T12:00:11.860Z,14.61
2023-04-29T12:02:40.417Z,14.35
2023-04-29T12:05:09.773Z,14.42
2023-04-29T12:07:38.335Z,14.39
2023-04-29T12:10:12.218Z,14.57
2023-04-29T12:12:43.825Z,14.58
2023-04-29T12:15:13.310Z,14.28
2023-04-29T12:17:42.177Z,14.21
2023-04-29T12:20:12.832Z,14.43
2023-04-29T12:22:41.256Z,14.66
2023-04-29T12:25:12.138Z,14.88
2023-04-29T12:27:42.819Z,14.76
2023-04-29T12:30:12.309Z,14.40
2023-04-29T12:32:40.513Z,14.79
2023-04-29T12:35:16.655Z,14.49
2023-04-29T12:37:44.935Z,14.10
2023-04-29T12:40:17.790Z,14.23
2023-04-29T12:42:46.722Z,14.57
2023-04-29T12:45:32.196Z,14.59
2023-04-29T12:48:02.217Z,14.42
2023-04-29T12:50:33.204Z,14.53
2023-04-29T12:53:02.441Z,14.33
2023-04-29T12:55:34.705Z,14.57
2023-04-29T12:58:03.554Z,14.33
2023-04-29T13:00:32.540Z,14.70
2023-04-29T13:03:01.649Z,14.56
2023-04-29T13:05:30.320Z,14.57
2023-04-29T13:07:58.824Z,14.14
2023-04-29T13:10:28.472Z,14.37
2023-04-29T13:12:58.520Z,14.55
2023-04-29T13:15:26.979Z,14.84
2023-04-29T13:17:55.774Z,14.39
2023-04-29T13:20:23.936Z,14.05
2023-04-29T13:22:52.853Z,14.61
2023-04-29T13:25:21.541Z,14.61
2023-04-29T13:27:50.162Z,14.65
2023-04-29T13:30:20.426Z,14.71
2023-04-29T13:32:54.737Z,14.56
2023-04-29T13:35:24.805Z,14.74
2023-04-29T13:37:52.999Z,14.86
2023-04-29T13:40:21.654Z,14.78
2023-04-29T13:42:55.196Z,14.76
2023-04-29T13:45:32.252Z,14.82
2023-04-29T14:01:10.129Z,14.77
2023-04-29T14:03:28.224Z,14.69
2023-04-29T14:05:56.736Z,14.71
2023-04-29T14:08:24.925Z,14.43
2023-04-29T14:10:54.216Z,14.36
2023-04-29T14:13:22.761Z,14.44
2023-04-29T14:15:52.490Z,13.98
2023-04-29T14:18:20.845Z,14.45
2023-04-29T14:20:49.629Z,14.29
2023-04-29T14:23:17.717Z,14.43
2023-04-29T14:25:45.852Z,14.56
2023-04-29T14:28:14.404Z,14.35
2023-04-29T14:30:46.748Z,14.08
2023-04-29T14:33:16.793Z,14.00
2023-04-29T14:35:44.888Z,14.10
2023-04-29T14:38:13.217Z,14.26
2023-04-29T14:40:41.761Z,14.73
2023-04-29T14:43:09.863Z,14.14
2023-04-29T14:45:38.436Z,14.23
2023-04-29T14:48:08.334Z,14.02
2023-04-29T14:50:38.085Z,14.34
2023-04-29T14:53:08.404Z,14.38
2023-04-29T14:55:36.980Z,14.27
2023-04-29T14:58:05.167Z,14.45
2023-04-29T15:00:33.360Z,14.43
2023-04-29T15:03:03.771Z,14.22
2023-04-29T15:06:03.848Z,14.14
2023-04-29T15:08:32.180Z,14.42
2023-04-29T15:11:00.451Z,14.07
2023-04-29T15:13:30.213Z,14.17
2023-04-29T15:16:00.198Z,14.08
2023-04-29T15:18:28.863Z,14.22
2023-04-29T15:20:57.490Z,14.21
2023-04-29T15:23:27.452Z,14.28
2023-04-29T15:25:55.741Z,14.06
2023-04-29T15:28:25.931Z,14.18
2023-04-29T15:30:54.273Z,14.35
2023-04-29T15:33:22.463Z,14.22
2023-04-29T15:35:51.084Z,14.05
2023-04-29T15:38:19.744Z,14.22
2023-04-29T15:40:49.996Z,14.08
2023-04-29T15:43:22.161Z,14.38
2023-04-29T15:45:51.309Z,14.39
2023-04-29T15:48:19.604Z,14.17
2023-04-29T15:50:47.920Z,14.52
2023-04-29T15:53:16.292Z,14.39
2023-04-29T15:55:44.519Z,14.46
2023-04-29T15:58:14.211Z,14.16
2023-04-29T16:00:42.483Z,14.39
2023-04-29T16:03:11.245Z,14.22
2023-04-29T16:05:40.076Z,14.05
2023-04-29T16:08:08.354Z,14.06
2023-04-29T16:10:36.526Z,13.98
2023-04-29T16:13:04.847Z,13.86
2023-04-29T16:15:34.500Z,14.18
2023-04-29T16:18:02.666Z,14.11
2023-04-29T16:20:31.036Z,14.36
2023-04-29T16:23:00.722Z,14.45
2023-04-29T16:25:28.935Z,13.97
2023-04-29T16:27:58.004Z,13.97
2023-04-29T16:30:28.200Z,13.98
2023-04-29T16:32:58.321Z,13.87
2023-04-29T16:35:29.180Z,13.94
2023-04-29T16:37:57.878Z,13.65
2023-04-29T16:40:26.854Z,13.89
2023-04-29T16:42:56.930Z,13.97
2023-04-29T16:45:25.849Z,13.91
2023-04-29T16:47:54.797Z,13.83
2023-04-29T16:50:24.685Z,13.30
2023-04-29T16:52:52.997Z,13.56
2023-04-29T16:55:22.977Z,13.42
2023-04-29T16:57:51.116Z,13.50
2023-04-29T17:00:19.376Z,13.65
2023-04-29T17:02:49.097Z,13.52
2023-04-29T17:05:20.139Z,13.39
2023-04-29T17:07:50.550Z,13.12
2023-04-29T17:10:18.889Z,13.27
2023-04-29T17:12:47.182Z,13.05
2023-04-29T17:15:16.694Z,13.14
2023-04-29T17:17:44.831Z,13.13
2023-04-29T17:20:14.514Z,13.27
2023-04-29T17:22:42.944Z,13.25
2023-04-29T17:25:13.866Z,13.29
2023-04-29T17:27:42.361Z,13.23
2023-04-29T17:30:11.381Z,13.10
2023-04-29T17:32:40.051Z,12.87
2023-04-29T17:35:09.469Z,13.11
2023-04-29T17:37:37.960Z,13.13
2023-04-29T17:40:07.410Z,12.93
2023-04-29T17:42:37.199Z,12.77
2023-04-29T17:45:06.403Z,12.75
2023-04-29T17:47:35.800Z,13.08
2023-04-29T17:50:04.075Z,12.67
2023-04-29T17:52:32.596Z,12.73
2023-04-29T17:55:00.781Z,12.94
2023-04-29T17:57:29.785Z,13.13
2023-04-29T17:59:59.438Z,12.98
2023-04-29T18:02:28.413Z,12.74
2023-04-29T18:04:57.082Z,12.67
2023-04-29T18:07:25.509Z,12.47
2023-04-29T18:09:54.549Z,12.68
2023-04-29T18:12:24.137Z,12.61
2023-04-29T18:14:53.119Z,12.55
2023-04-29T18:17:22.636Z,12.61
2023-04-29T18:19:50.871Z,12.57
2023-04-29T18:22:21.650Z,12.54
2023-04-29T18:24:51.046Z,12.35
2023-04-29T18:27:22.289Z,12.51
2023-04-29T18:29:50.493Z,12.56
2023-04-29T18:32:19.020Z,12.53
2023-04-29T18:34:48.992Z,12.67
2023-04-29T18:37:17.176Z,12.63
2023-04-29T18:39:45.490Z,12.48
2023-04-29T18:42:13.857Z,12.52
2023-04-29T18:44:42.001Z,12.39
2023-04-29T18:47:10.653Z,12.39
2023-04-29T18:49:38.831Z,12.25
2023-04-29T18:52:08.907Z,12.38
2023-04-29T18:54:37.124Z,12.38
2023-04-29T18:57:06.469Z,12.51
2023-04-29T18:59:36.014Z,12.64
2023-04-29T19:02:06.247Z,12.63
2023-04-29T19:04:35.461Z,12.60
2023-04-29T19:07:06.106Z,12.66
2023-04-29T19:09:35.746Z,12.60
2023-04-29T19:12:04.754Z,12.29
2023-04-29T19:14:34.268Z,12.29
2023-04-29T19:17:03.121Z,12.22
2023-04-29T19:19:31.886Z,12.34
2023-04-29T19:22:00.504Z,12.25
2023-04-29T19:24:28.782Z,12.17
2023-04-29T19:26:58.582Z,12.02
2023-04-29T19:29:27.077Z,12.11
2023-04-29T19:31:57.637Z,11.93
2023-04-29T19:34:25.988Z,11.96
2023-04-29T19:36:54.367Z,12.00
2023-04-29T19:39:22.779Z,11.97
2023-04-29T19:41:51.058Z,11.95
2023-04-29T19:44:20.512Z,12.06
2023-04-29T19:46:51.193Z,11.87
2023-04-29T19:49:19.800Z,11.95
2023-04-29T19:51:48.368Z,11.97
2023-04-29T19:54:17.005Z,11.89
2023-04-29T19:56:45.798Z,11.96
2023-04-29T19:59:15.144Z,11.88
2023-04-29T20:01:45.413Z,11.80
2023-04-29T20:04:13.757Z,11.86
2023-04-29T20:06:42.057Z,11.73
2023-04-29T20:09:11.312Z,11.98
2023-04-29T20:11:39.471Z,11.88
2023-04-29T20:14:07.577Z,11.92
2023-04-29T20:16:36.544Z,11.95
2023-04-29T20:19:06.755Z,11.81
2023-04-29T20:21:35.281Z,12.00
2023-04-29T20:24:03.600Z,12.04
2023-04-29T20:26:31.952Z,12.11
2023-04-29T20:29:00.052Z,12.20
2023-04-29T20:31:31.199Z,11.99
2023-04-29T20:33:59.552Z,12.05
2023-04-29T20:36:30.172Z,11.99
2023-04-29T20:38:58.679Z,11.88
2023-04-29T20:41:30.363Z,11.69
2023-04-29T20:44:01.713Z,11.62
2023-04-29T20:46:30.128Z,11.29
2023-04-29T20:48:58.895Z,11.53
2023-04-29T20:51:29.647Z,11.77
2023-04-29T20:54:01.048Z,11.86
2023-04-29T20:56:29.513Z,11.79
2023-04-29T20:58:58.998Z,11.82
2023-04-29T21:01:27.452Z,11.65
2023-04-29T21:03:55.887Z,11.57
2023-04-29T21:06:24.019Z,11.58
2023-04-29T21:08:53.643Z,11.52
2023-04-29T21:11:22.404Z,11.53
2023-04-29T21:13:51.864Z,11.60
2023-04-29T21:16:20.867Z,11.30
2023-04-29T21:18:49.021Z,11.39
2023-04-29T21:21:17.705Z,11.35
2023-04-29T21:23:45.954Z,11.29
2023-04-29T21:26:15.465Z,11.27
2023-04-29T21:28:43.551Z,11.37
2023-04-29T21:31:16.331Z,11.15
2023-04-29T21:33:44.919Z,11.42
2023-04-29T21:36:13.248Z,11.45
2023-04-29T21:38:44.411Z,11.43
2023-04-29T21:41:24.296Z,11.17
2023-04-29T21:43:52.628Z,11.43
2023-04-29T21:46:21.796Z,10.96
2023-04-29T21:48:50.624Z,11.30
2023-04-29T21:51:22.683Z,11.16
2023-04-29T21:53:51.894Z,11.25
2023-04-29T21:56:22.765Z,11.01
2023-04-29T21:58:51.376Z,11.13
2023-04-29T22:01:40.479Z,11.08
2023-04-29T22:04:08.791Z,11.10
2023-04-29T22:06:38.663Z,10.89
2023-04-29T22:09:08.772Z,10.98
2023-04-29T22:11:38.724Z,10.91
2023-04-29T22:14:06.928Z,10.96
2023-04-29T22:16:35.991Z,11.08
2023-04-29T22:19:04.823Z,10.78
2023-04-29T22:21:33.261Z,10.73
2023-04-29T22:24:01.572Z,10.99
2023-04-29T22:26:29.843Z,10.86
2023-04-29T22:28:59.300Z,10.82
2023-04-29T22:31:28.121Z,10.95
2023-04-29T22:33:56.875Z,10.86
2023-04-29T22:36:25.312Z,10.91
2023-04-29T22:38:53.621Z,10.94
2023-04-29T22:41:21.904Z,11.15
2023-04-29T22:43:57.023Z,11.05
2023-04-29T22:46:27.490Z,11.05
2023-04-29T22:48:55.817Z,11.25
2023-04-29T22:51:24.334Z,11.23
2023-04-29T22:53:52.671Z,11.20
2023-04-29T22:56:20.958Z,11.28
2023-04-29T22:58:48.998Z,11.12
2023-04-29T23:01:17.433Z,11.05
2023-04-29T23:03:46.827Z,11.02
2023-04-29T23:06:15.260Z,10.91
2023-04-29T23:08:44.847Z,10.97
2023-04-29T23:11:13.306Z,10.88
2023-04-29T23:13:41.791Z,10.82
2023-04-29T23:16:10.990Z,10.82
2023-04-29T23:18:39.477Z,10.78
2023-04-29T23:21:09.163Z,10.71
2023-04-29T23:23:37.990Z,10.66
2023-04-29T23:26:06.386Z,10.20
2023-04-29T23:28:34.462Z,10.47
2023-04-29T23:31:02.808Z,10.61
2023-04-29T23:33:30.898Z,10.65
2023-04-29T23:35:58.961Z,10.46
2023-04-29T23:38:28.905Z,10.45
2023-04-29T23:40:57.199Z,10.52
2023-04-29T23:43:25.504Z,10.55
2023-04-29T23:45:53.801Z,10.63
2023-04-29T23:48:21.873Z,10.55
2023-04-29T23:50:49.885Z,10.56
2023-04-29T23:53:18.749Z,10.72
2023-04-29T23:55:49.565Z,10.70
2023-04-29T23:58:17.829Z,10.69
